sensor_id;sensor_type;location;lat;lon;timestamp;P1;durP1;ratioP1;P2;durP2;ratioP2
38567;SDS011;24338;48.280;10.970;2023-05-23T00:01:59;12.20;;;9.95;;
38567;SDS011;24338;48.280;10.970;2023-05-23T00:04:27;11.82;;;9.32;;
38567;SDS011;24338;48.280;10.970;2023-05-23T00:06:54;13.70;;;9.98;;
38567;SDS011;24338;48.280;10.970;2023-05-23T00:09:21;12.90;;;10.80;;
38567;SDS011;24338;48.280;10.970;2023-05-23T00:11:48;11.13;;;8.68;;
38567;SDS011;24338;48.280;10.970;2023-05-23T00:14:14;14.07;;;9.50;;
38567;SDS011;24338;48.280;10.970;2023-05-23T00:16:43;12.43;;;9.43;;
38567;SDS011;24338;48.280;10.970;2023-05-23T00:19:11;17.20;;;9.48;;
38567;SDS011;24338;48.280;10.970;2023-05-23T00:21:42;13.75;;;11.23;;
38567;SDS011;24338;48.280;10.970;2023-05-23T00:24:15;12.15;;;9.82;;
38567;SDS011;24338;48.280;10.970;2023-05-23T00:26:44;13.32;;;10.30;;
38567;SDS011;24338;48.280;10.970;2023-05-23T00:29:11;12.32;;;10.23;;
38567;SDS011;24338;48.280;10.970;2023-05-23T00:31:42;11.10;;;9.65;;
38567;SDS011;24338;48.280;10.970;2023-05-23T00:34:15;14.68;;;9.32;;
38567;SDS011;24338;48.280;10.970;2023-05-23T00:36:43;16.80;;;11.32;;
38567;SDS011;24338;48.280;10.970;2023-05-23T00:39:13;11.43;;;9.77;;
38567;SDS011;24338;48.280;10.970;2023-05-23T00:41:45;14.32;;;10.52;;
38567;SDS011;24338;48.280;10.970;2023-05-23T00:46:46;13.30;;;10.55;;
38567;SDS011;24338;48.280;10.970;2023-05-23T00:51:45;13.40;;;10.18;;
38567;SDS011;24338;48.280;10.970;2023-05-23T00:54:16;15.40;;;11.27;;
38567;SDS011;24338;48.280;10.970;2023-05-23T00:56:47;12.68;;;9.93;;
38567;SDS011;24338;48.280;10.970;2023-05-23T00:59:14;14.93;;;10.95;;
38567;SDS011;24338;48.280;10.970;2023-05-23T01:01:42;15.73;;;10.73;;
38567;SDS011;24338;48.280;10.970;2023-05-23T01:04:13;16.98;;;10.57;;
38567;SDS011;24338;48.280;10.970;2023-05-23T01:06:42;15.15;;;10.68;;
38567;SDS011;24338;48.280;10.970;2023-05-23T01:09:13;14.90;;;11.77;;
38567;SDS011;24338;48.280;10.970;2023-05-23T01:14:28;14.98;;;11.27;;
38567;SDS011;24338;48.280;10.970;2023-05-23T01:17:08;13.57;;;11.52;;
38567;SDS011;24338;48.280;10.970;2023-05-23T01:19:57;14.25;;;12.02;;
38567;SDS011;24338;48.280;10.970;2023-05-23T01:25:23;13.13;;;11.73;;
38567;SDS011;24338;48.280;10.970;2023-05-23T01:28:04;16.23;;;12.05;;
38567;SDS011;24338;48.280;10.970;2023-05-23T01:30:34;16.48;;;11.57;;
38567;SDS011;24338;48.280;10.970;2023-05-23T01:33:05;18.30;;;11.75;;
38567;SDS011;24338;48.280;10.970;2023-05-23T01:35:34;14.95;;;12.15;;
38567;SDS011;24338;48.280;10.970;2023-05-23T01:38:02;18.95;;;11.48;;
38567;SDS011;24338;48.280;10.970;2023-05-23T01:40:29;15.60;;;11.65;;
38567;SDS011;24338;48.280;10.970;2023-05-23T01:42:56;16.55;;;13.00;;
38567;SDS011;24338;48.280;10.970;2023-05-23T01:45:25;17.15;;;13.18;;
38567;SDS011;24338;48.280;10.970;2023-05-23T01:47:53;14.52;;;12.15;;
38567;SDS011;24338;48.280;10.970;2023-05-23T01:50:22;15.57;;;12.52;;
38567;SDS011;24338;48.280;10.970;2023-05-23T01:52:49;13.40;;;11.70;;
38567;SDS011;24338;48.280;10.970;2023-05-23T01:55:18;15.02;;;12.27;;
38567;SDS011;24338;48.280;10.970;2023-05-23T01:57:52;15.05;;;11.65;;
38567;SDS011;24338;48.280;10.970;2023-05-23T02:00:22;18.67;;;13.05;;
38567;SDS011;24338;48.280;10.970;2023-05-23T02:03:46;16.67;;;12.93;;
38567;SDS011;24338;48.280;10.970;2023-05-23T02:06:28;14.57;;;10.90;;
38567;SDS011;24338;48.280;10.970;2023-05-23T02:11:56;17.15;;;12.43;;
38567;SDS011;24338;48.280;10.970;2023-05-23T02:14:23;16.40;;;11.75;;
38567;SDS011;24338;48.280;10.970;2023-05-23T02:16:51;15.60;;;12.75;;
38567;SDS011;24338;48.280;10.970;2023-05-23T02:19:19;15.73;;;13.07;;
38567;SDS011;24338;48.280;10.970;2023-05-23T02:21:46;18.38;;;14.10;;
38567;SDS011;24338;48.280;10.970;2023-05-23T02:24:13;17.77;;;13.20;;
38567;SDS011;24338;48.280;10.970;2023-05-23T02:26:40;18.50;;;12.95;;
38567;SDS011;24338;48.280;10.970;2023-05-23T02:29:07;14.50;;;12.85;;
38567;SDS011;24338;48.280;10.970;2023-05-23T02:31:36;17.98;;;14.80;;
38567;SDS011;24338;48.280;10.970;2023-05-23T02:34:03;17.63;;;14.02;;
38567;SDS011;24338;48.280;10.970;2023-05-23T02:36:30;17.42;;;14.60;;
38567;SDS011;24338;48.280;10.970;2023-05-23T02:38:58;19.25;;;13.55;;
38567;SDS011;24338;48.280;10.970;2023-05-23T02:41:25;18.02;;;13.93;;
38567;SDS011;24338;48.280;10.970;2023-05-23T02:43:52;17.30;;;13.73;;
38567;SDS011;24338;48.280;10.970;2023-05-23T02:46:20;18.50;;;14.48;;
38567;SDS011;24338;48.280;10.970;2023-05-23T02:48:46;17.55;;;14.60;;
38567;SDS011;24338;48.280;10.970;2023-05-23T02:51:13;17.02;;;14.73;;
38567;SDS011;24338;48.280;10.970;2023-05-23T02:53:40;19.27;;;15.13;;
38567;SDS011;24338;48.280;10.970;2023-05-23T02:56:07;19.45;;;15.75;;
38567;SDS011;24338;48.280;10.970;2023-05-23T02:58:35;18.73;;;14.27;;
38567;SDS011;24338;48.280;10.970;2023-05-23T03:01:02;21.98;;;15.70;;
38567;SDS011;24338;48.280;10.970;2023-05-23T03:03:32;18.17;;;14.63;;
38567;SDS011;24338;48.280;10.970;2023-05-23T03:06:00;19.80;;;16.25;;
38567;SDS011;24338;48.280;10.970;2023-05-23T03:08:28;18.95;;;15.73;;
38567;SDS011;24338;48.280;10.970;2023-05-23T03:10:55;22.15;;;15.25;;
38567;SDS011;24338;48.280;10.970;2023-05-23T03:13:22;17.58;;;14.73;;
38567;SDS011;24338;48.280;10.970;2023-05-23T03:15:49;20.75;;;15.23;;
38567;SDS011;24338;48.280;10.970;2023-05-23T03:18:17;20.58;;;16.27;;
38567;SDS011;24338;48.280;10.970;2023-05-23T03:20:43;20.70;;;15.77;;
38567;SDS011;24338;48.280;10.970;2023-05-23T03:23:11;21.20;;;15.82;;
38567;SDS011;24338;48.280;10.970;2023-05-23T03:25:37;21.55;;;17.38;;
38567;SDS011;24338;48.280;10.970;2023-05-23T03:28:05;21.65;;;16.10;;
38567;SDS011;24338;48.280;10.970;2023-05-23T03:30:32;19.27;;;15.05;;
38567;SDS011;24338;48.280;10.970;2023-05-23T03:32:59;19.02;;;15.40;;
38567;SDS011;24338;48.280;10.970;2023-05-23T03:35:27;19.52;;;16.60;;
38567;SDS011;24338;48.280;10.970;2023-05-23T03:37:54;20.95;;;16.98;;
38567;SDS011;24338;48.280;10.970;2023-05-23T03:40:21;20.48;;;16.90;;
38567;SDS011;24338;48.280;10.970;2023-05-23T03:43:00;24.77;;;17.00;;
38567;SDS011;24338;48.280;10.970;2023-05-23T03:45:30;25.90;;;17.20;;
38567;SDS011;24338;48.280;10.970;2023-05-23T03:47:58;21.50;;;16.50;;
38567;SDS011;24338;48.280;10.970;2023-05-23T03:50:26;21.13;;;15.98;;
38567;SDS011;24338;48.280;10.970;2023-05-23T03:52:53;24.25;;;17.33;;
38567;SDS011;24338;48.280;10.970;2023-05-23T03:55:20;21.42;;;17.38;;
38567;SDS011;24338;48.280;10.970;2023-05-23T03:57:50;20.90;;;16.73;;
38567;SDS011;24338;48.280;10.970;2023-05-23T04:00:17;24.83;;;18.55;;
38567;SDS011;24338;48.280;10.970;2023-05-23T04:02:45;23.17;;;17.17;;
38567;SDS011;24338;48.280;10.970;2023-05-23T04:05:12;20.23;;;16.70;;
38567;SDS011;24338;48.280;10.970;2023-05-23T04:07:39;24.02;;;18.60;;
38567;SDS011;24338;48.280;10.970;2023-05-23T04:10:07;26.85;;;18.38;;
38567;SDS011;24338;48.280;10.970;2023-05-23T04:12:35;23.63;;;18.05;;
38567;SDS011;24338;48.280;10.970;2023-05-23T04:15:03;24.63;;;19.15;;
38567;SDS011;24338;48.280;10.970;2023-05-23T04:17:30;26.50;;;19.73;;
38567;SDS011;24338;48.280;10.970;2023-05-23T04:19:57;26.05;;;19.70;;
38567;SDS011;24338;48.280;10.970;2023-05-23T04:22:25;26.77;;;19.08;;
38567;SDS011;24338;48.280;10.970;2023-05-23T04:24:51;27.35;;;20.73;;
38567;SDS011;24338;48.280;10.970;2023-05-23T04:27:18;26.90;;;20.27;;
38567;SDS011;24338;48.280;10.970;2023-05-23T04:29:47;25.55;;;19.23;;
38567;SDS011;24338;48.280;10.970;2023-05-23T04:32:14;28.05;;;21.05;;
38567;SDS011;24338;48.280;10.970;2023-05-23T04:34:43;25.10;;;19.65;;
38567;SDS011;24338;48.280;10.970;2023-05-23T04:37:10;23.60;;;18.85;;
38567;SDS011;24338;48.280;10.970;2023-05-23T04:39:38;25.90;;;18.10;;
38567;SDS011;24338;48.280;10.970;2023-05-23T04:42:05;25.48;;;19.95;;
38567;SDS011;24338;48.280;10.970;2023-05-23T04:44:32;27.10;;;19.30;;
38567;SDS011;24338;48.280;10.970;2023-05-23T04:47:02;24.50;;;18.85;;
38567;SDS011;24338;48.280;10.970;2023-05-23T04:49:29;28.35;;;20.33;;
38567;SDS011;24338;48.280;10.970;2023-05-23T04:51:59;25.83;;;20.60;;
38567;SDS011;24338;48.280;10.970;2023-05-23T04:54:26;28.05;;;19.73;;
38567;SDS011;24338;48.280;10.970;2023-05-23T04:56:53;25.20;;;19.73;;
38567;SDS011;24338;48.280;10.970;2023-05-23T04:59:20;27.23;;;21.00;;
38567;SDS011;24338;48.280;10.970;2023-05-23T05:01:46;30.02;;;20.25;;
38567;SDS011;24338;48.280;10.970;2023-05-23T05:04:13;28.67;;;19.63;;
38567;SDS011;24338;48.280;10.970;2023-05-23T05:06:41;31.25;;;20.85;;
38567;SDS011;24338;48.280;10.970;2023-05-23T05:09:08;26.10;;;20.23;;
38567;SDS011;24338;48.280;10.970;2023-05-23T05:11:35;30.05;;;20.27;;
38567;SDS011;24338;48.280;10.970;2023-05-23T05:14:02;27.63;;;21.40;;
38567;SDS011;24338;48.280;10.970;2023-05-23T05:16:28;28.80;;;21.80;;
38567;SDS011;24338;48.280;10.970;2023-05-23T05:18:56;30.92;;;21.30;;
38567;SDS011;24338;48.280;10.970;2023-05-23T05:21:23;27.42;;;20.35;;
38567;SDS011;24338;48.280;10.970;2023-05-23T05:23:50;27.10;;;20.35;;
38567;SDS011;24338;48.280;10.970;2023-05-23T05:26:17;24.38;;;19.88;;
38567;SDS011;24338;48.280;10.970;2023-05-23T05:28:44;29.60;;;20.45;;
38567;SDS011;24338;48.280;10.970;2023-05-23T05:31:11;26.52;;;21.27;;
38567;SDS011;24338;48.280;10.970;2023-05-23T05:33:40;31.88;;;21.42;;
38567;SDS011;24338;48.280;10.970;2023-05-23T05:36:11;30.13;;;22.67;;
38567;SDS011;24338;48.280;10.970;2023-05-23T05:38:38;29.35;;;19.83;;
38567;SDS011;24338;48.280;10.970;2023-05-23T05:41:05;27.02;;;21.65;;
38567;SDS011;24338;48.280;10.970;2023-05-23T05:43:34;32.38;;;22.95;;
38567;SDS011;24338;48.280;10.970;2023-05-23T05:46:01;27.42;;;21.40;;
38567;SDS011;24338;48.280;10.970;2023-05-23T05:48:28;31.70;;;22.23;;
38567;SDS011;24338;48.280;10.970;2023-05-23T05:50:55;32.15;;;23.10;;
38567;SDS011;24338;48.280;10.970;2023-05-23T05:53:22;27.80;;;22.73;;
38567;SDS011;24338;48.280;10.970;2023-05-23T05:55:49;31.83;;;23.45;;
38567;SDS011;24338;48.280;10.970;2023-05-23T05:58:16;29.33;;;23.75;;
38567;SDS011;24338;48.280;10.970;2023-05-23T06:00:43;31.27;;;22.25;;
38567;SDS011;24338;48.280;10.970;2023-05-23T06:03:10;30.80;;;22.70;;
38567;SDS011;24338;48.280;10.970;2023-05-23T06:05:41;31.10;;;23.25;;
38567;SDS011;24338;48.280;10.970;2023-05-23T06:08:08;33.90;;;22.58;;
38567;SDS011;24338;48.280;10.970;2023-05-23T06:10:36;29.15;;;23.40;;
38567;SDS011;24338;48.280;10.970;2023-05-23T06:13:05;32.20;;;22.67;;
38567;SDS011;24338;48.280;10.970;2023-05-23T06:15:31;30.80;;;23.73;;
38567;SDS011;24338;48.280;10.970;2023-05-23T06:17:58;31.77;;;23.40;;
38567;SDS011;24338;48.280;10.970;2023-05-23T06:20:25;31.30;;;24.52;;
38567;SDS011;24338;48.280;10.970;2023-05-23T06:22:52;32.20;;;23.77;;
38567;SDS011;24338;48.280;10.970;2023-05-23T06:25:19;30.92;;;23.38;;
38567;SDS011;24338;48.280;10.970;2023-05-23T06:27:47;31.58;;;23.45;;
38567;SDS011;24338;48.280;10.970;2023-05-23T06:30:14;41.45;;;26.05;;
38567;SDS011;24338;48.280;10.970;2023-05-23T06:32:41;32.40;;;24.08;;
38567;SDS011;24338;48.280;10.970;2023-05-23T06:35:08;32.10;;;24.70;;
38567;SDS011;24338;48.280;10.970;2023-05-23T06:37:35;33.53;;;24.40;;
38567;SDS011;24338;48.280;10.970;2023-05-23T06:40:02;34.88;;;25.00;;
38567;SDS011;24338;48.280;10.970;2023-05-23T06:42:29;30.65;;;23.80;;
38567;SDS011;24338;48.280;10.970;2023-05-23T06:44:57;33.63;;;25.77;;
38567;SDS011;24338;48.280;10.970;2023-05-23T06:47:23;30.52;;;23.25;;
38567;SDS011;24338;48.280;10.970;2023-05-23T06:49:50;36.22;;;24.50;;
38567;SDS011;24338;48.280;10.970;2023-05-23T06:52:17;31.63;;;24.60;;
38567;SDS011;24338;48.280;10.970;2023-05-23T06:54:44;32.63;;;22.88;;
38567;SDS011;24338;48.280;10.970;2023-05-23T06:57:11;28.10;;;22.60;;
38567;SDS011;24338;48.280;10.970;2023-05-23T06:59:38;28.48;;;22.45;;
38567;SDS011;24338;48.280;10.970;2023-05-23T07:02:05;27.88;;;21.45;;
38567;SDS011;24338;48.280;10.970;2023-05-23T07:04:32;33.08;;;23.90;;
38567;SDS011;24338;48.280;10.970;2023-05-23T07:06:59;29.75;;;22.95;;
38567;SDS011;24338;48.280;10.970;2023-05-23T07:09:27;28.42;;;23.45;;
38567;SDS011;24338;48.280;10.970;2023-05-23T07:11:54;33.72;;;24.13;;
38567;SDS011;24338;48.280;10.970;2023-05-23T07:14:20;30.50;;;23.70;;
38567;SDS011;24338;48.280;10.970;2023-05-23T07:16:47;33.10;;;24.67;;
38567;SDS011;24338;48.280;10.970;2023-05-23T07:19:14;32.15;;;23.45;;
38567;SDS011;24338;48.280;10.970;2023-05-23T07:21:41;32.30;;;23.00;;
38567;SDS011;24338;48.280;10.970;2023-05-23T07:24:08;31.90;;;23.88;;
38567;SDS011;24338;48.280;10.970;2023-05-23T07:26:37;31.95;;;23.77;;
38567;SDS011;24338;48.280;10.970;2023-05-23T07:29:04;31.83;;;23.67;;
38567;SDS011;24338;48.280;10.970;2023-05-23T07:31:32;30.05;;;23.73;;
38567;SDS011;24338;48.280;10.970;2023-05-23T07:33:59;29.25;;;23.13;;
38567;SDS011;24338;48.280;10.970;2023-05-23T07:36:26;30.70;;;24.15;;
38567;SDS011;24338;48.280;10.970;2023-05-23T07:38:54;32.95;;;23.92;;
38567;SDS011;24338;48.280;10.970;2023-05-23T07:41:23;33.03;;;25.48;;
38567;SDS011;24338;48.280;10.970;2023-05-23T07:43:50;27.83;;;23.27;;
38567;SDS011;24338;48.280;10.970;2023-05-23T07:46:26;28.30;;;22.63;;
38567;SDS011;24338;48.280;10.970;2023-05-23T07:50:26;30.45;;;22.88;;
38567;SDS011;24338;48.280;10.970;2023-05-23T09:01:51;25.90;;;20.45;;
38567;SDS011;24338;48.280;10.970;2023-05-23T09:04:21;23.88;;;18.85;;
38567;SDS011;24338;48.280;10.970;2023-05-23T09:07:06;24.00;;;19.48;;
38567;SDS011;24338;48.280;10.970;2023-05-23T09:09:35;24.55;;;18.98;;
38567;SDS011;24338;48.280;10.970;2023-05-23T09:12:02;24.58;;;18.92;;
38567;SDS011;24338;48.280;10.970;2023-05-23T09:14:29;23.67;;;18.58;;
38567;SDS011;24338;48.280;10.970;2023-05-23T09:17:00;21.60;;;17.80;;
38567;SDS011;24338;48.280;10.970;2023-05-23T09:19:30;22.35;;;17.80;;
38567;SDS011;24338;48.280;10.970;2023-05-23T09:21:57;24.02;;;18.48;;
38567;SDS011;24338;48.280;10.970;2023-05-23T09:24:32;22.65;;;17.55;;
38567;SDS011;24338;48.280;10.970;2023-05-23T09:27:00;24.02;;;18.27;;
38567;SDS011;24338;48.280;10.970;2023-05-23T09:29:27;29.25;;;20.70;;
38567;SDS011;24338;48.280;10.970;2023-05-23T09:31:58;26.08;;;19.48;;
38567;SDS011;24338;48.280;10.970;2023-05-23T09:34:35;26.80;;;20.27;;
38567;SDS011;24338;48.280;10.970;2023-05-23T09:37:06;25.47;;;19.93;;
38567;SDS011;24338;48.280;10.970;2023-05-23T09:39:36;25.73;;;19.35;;
38567;SDS011;24338;48.280;10.970;2023-05-23T09:42:04;24.98;;;20.05;;
38567;SDS011;24338;48.280;10.970;2023-05-23T09:44:31;27.33;;;21.02;;
38567;SDS011;24338;48.280;10.970;2023-05-23T09:47:06;24.58;;;20.17;;
38567;SDS011;24338;48.280;10.970;2023-05-23T09:49:33;26.95;;;18.95;;
38567;SDS011;24338;48.280;10.970;2023-05-23T09:52:00;28.38;;;19.23;;
38567;SDS011;24338;48.280;10.970;2023-05-23T09:54:27;26.23;;;19.17;;
38567;SDS011;24338;48.280;10.970;2023-05-23T09:56:54;25.83;;;18.75;;
38567;SDS011;24338;48.280;10.970;2023-05-23T09:59:23;25.40;;;17.98;;
38567;SDS011;24338;48.280;10.970;2023-05-23T10:01:54;21.70;;;17.05;;
38567;SDS011;24338;48.280;10.970;2023-05-23T10:04:22;20.38;;;17.17;;
38567;SDS011;24338;48.280;10.970;2023-05-23T10:06:53;23.00;;;17.80;;
38567;SDS011;24338;48.280;10.970;2023-05-23T10:09:25;20.00;;;16.30;;
38567;SDS011;24338;48.280;10.970;2023-05-23T10:14:42;22.48;;;14.82;;
38567;SDS011;24338;48.280;10.970;2023-05-23T10:17:18;19.88;;;15.63;;
38567;SDS011;24338;48.280;10.970;2023-05-23T10:19:57;17.08;;;13.57;;
38567;SDS011;24338;48.280;10.970;2023-05-23T10:22:36;17.10;;;14.93;;
38567;SDS011;24338;48.280;10.970;2023-05-23T10:25:04;17.77;;;14.10;;
38567;SDS011;24338;48.280;10.970;2023-05-23T10:27:33;17.38;;;14.65;;
38567;SDS011;24338;48.280;10.970;2023-05-23T10:30:00;19.80;;;16.35;;
38567;SDS011;24338;48.280;10.970;2023-05-23T10:32:28;18.40;;;15.20;;
38567;SDS011;24338;48.280;10.970;2023-05-23T10:35:07;19.05;;;16.02;;
38567;SDS011;24338;48.280;10.970;2023-05-23T10:38:01;17.42;;;15.45;;
38567;SDS011;24338;48.280;10.970;2023-05-23T10:45:56;16.27;;;13.43;;
38567;SDS011;24338;48.280;10.970;2023-05-23T10:48:33;15.40;;;13.55;;
38567;SDS011;24338;48.280;10.970;2023-05-23T10:51:13;17.00;;;12.50;;
38567;SDS011;24338;48.280;10.970;2023-05-23T10:53:41;14.05;;;12.55;;
38567;SDS011;24338;48.280;10.970;2023-05-23T10:56:10;13.95;;;12.50;;
38567;SDS011;24338;48.280;10.970;2023-05-23T10:58:45;13.57;;;12.15;;
38567;SDS011;24338;48.280;10.970;2023-05-23T11:01:12;14.93;;;12.10;;
38567;SDS011;24338;48.280;10.970;2023-05-23T11:06:36;15.65;;;11.15;;
38567;SDS011;24338;48.280;10.970;2023-05-23T11:09:11;18.88;;;11.85;;
38567;SDS011;24338;48.280;10.970;2023-05-23T11:11:53;15.65;;;12.20;;
38567;SDS011;24338;48.280;10.970;2023-05-23T11:14:30;14.20;;;11.50;;
38567;SDS011;24338;48.280;10.970;2023-05-23T11:17:28;13.30;;;11.82;;
38567;SDS011;24338;48.280;10.970;2023-05-23T11:19:57;13.15;;;11.40;;
38567;SDS011;24338;48.280;10.970;2023-05-23T11:22:35;13.35;;;11.10;;
38567;SDS011;24338;48.280;10.970;2023-05-23T11:25:05;12.88;;;10.65;;
38567;SDS011;24338;48.280;10.970;2023-05-23T11:32:39;13.30;;;10.40;;
38567;SDS011;24338;48.280;10.970;2023-05-23T11:35:08;14.45;;;11.20;;
38567;SDS011;24338;48.280;10.970;2023-05-23T11:37:39;13.55;;;11.55;;
38567;SDS011;24338;48.280;10.970;2023-05-23T11:43:06;14.30;;;11.02;;
38567;SDS011;24338;48.280;10.970;2023-05-23T11:45:36;12.60;;;11.27;;
38567;SDS011;24338;48.280;10.970;2023-05-23T11:48:13;15.05;;;12.48;;
38567;SDS011;24338;48.280;10.970;2023-05-23T11:51:00;15.77;;;11.65;;
38567;SDS011;24338;48.280;10.970;2023-05-23T11:53:28;13.68;;;12.05;;
38567;SDS011;24338;48.280;10.970;2023-05-23T11:55:56;14.95;;;11.95;;
38567;SDS011;24338;48.280;10.970;2023-05-23T11:58:29;12.88;;;10.20;;
38567;SDS011;24338;48.280;10.970;2023-05-23T12:01:01;11.63;;;10.25;;
38567;SDS011;24338;48.280;10.970;2023-05-23T12:03:56;14.35;;;10.70;;
38567;SDS011;24338;48.280;10.970;2023-05-23T12:06:23;13.88;;;9.75;;
38567;SDS011;24338;48.280;10.970;2023-05-23T12:08:51;15.18;;;10.80;;
38567;SDS011;24338;48.280;10.970;2023-05-23T12:11:18;13.05;;;11.20;;
38567;SDS011;24338;48.280;10.970;2023-05-23T12:13:45;16.63;;;11.00;;
38567;SDS011;24338;48.280;10.970;2023-05-23T12:16:12;13.07;;;11.13;;
38567;SDS011;24338;48.280;10.970;2023-05-23T12:18:41;12.85;;;11.32;;
38567;SDS011;24338;48.280;10.970;2023-05-23T12:21:08;12.75;;;10.75;;
38567;SDS011;24338;48.280;10.970;2023-05-23T12:23:36;16.65;;;11.27;;
38567;SDS011;24338;48.280;10.970;2023-05-23T12:26:05;14.30;;;11.88;;
38567;SDS011;24338;48.280;10.970;2023-05-23T12:28:34;14.88;;;11.07;;
38567;SDS011;24338;48.280;10.970;2023-05-23T12:31:09;13.38;;;10.85;;
38567;SDS011;24338;48.280;10.970;2023-05-23T12:33:43;13.57;;;11.13;;
38567;SDS011;24338;48.280;10.970;2023-05-23T12:36:14;13.20;;;10.43;;
38567;SDS011;24338;48.280;10.970;2023-05-23T12:38:46;12.88;;;10.52;;
38567;SDS011;24338;48.280;10.970;2023-05-23T12:41:17;13.95;;;11.52;;
38567;SDS011;24338;48.280;10.970;2023-05-23T12:43:52;13.65;;;11.75;;
38567;SDS011;24338;48.280;10.970;2023-05-23T12:46:21;12.73;;;11.05;;
38567;SDS011;24338;48.280;10.970;2023-05-23T12:48:49;14.07;;;11.80;;
38567;SDS011;24338;48.280;10.970;2023-05-23T12:51:17;12.85;;;11.40;;
38567;SDS011;24338;48.280;10.970;2023-05-23T12:53:44;14.65;;;11.63;;
38567;SDS011;24338;48.280;10.970;2023-05-23T12:56:11;14.10;;;11.07;;
38567;SDS011;24338;48.280;10.970;2023-05-23T12:58:38;12.98;;;11.18;;
38567;SDS011;24338;48.280;10.970;2023-05-23T13:01:05;15.40;;;10.98;;
38567;SDS011;24338;48.280;10.970;2023-05-23T13:03:32;14.20;;;11.82;;
38567;SDS011;24338;48.280;10.970;2023-05-23T13:05:59;14.40;;;12.18;;
38567;SDS011;24338;48.280;10.970;2023-05-23T13:08:26;13.50;;;11.63;;
38567;SDS011;24338;48.280;10.970;2023-05-23T13:10:54;14.63;;;12.55;;
38567;SDS011;24338;48.280;10.970;2023-05-23T13:13:22;13.82;;;12.18;;
38567;SDS011;24338;48.280;10.970;2023-05-23T13:15:49;13.90;;;11.60;;
38567;SDS011;24338;48.280;10.970;2023-05-23T13:18:17;15.65;;;12.55;;
38567;SDS011;24338;48.280;10.970;2023-05-23T13:20:44;12.90;;;11.48;;
38567;SDS011;24338;48.280;10.970;2023-05-23T13:23:11;12.50;;;11.23;;
38567;SDS011;24338;48.280;10.970;2023-05-23T13:25:39;13.20;;;11.18;;
38567;SDS011;24338;48.280;10.970;2023-05-23T13:28:07;14.55;;;11.38;;
38567;SDS011;24338;48.280;10.970;2023-05-23T13:30:34;11.02;;;9.55;;
38567;SDS011;24338;48.280;10.970;2023-05-23T13:33:01;12.10;;;10.02;;
38567;SDS011;24338;48.280;10.970;2023-05-23T13:35:29;14.63;;;10.48;;
38567;SDS011;24338;48.280;10.970;2023-05-23T13:37:56;11.48;;;9.38;;
38567;SDS011;24338;48.280;10.970;2023-05-23T13:40:23;11.68;;;9.88;;
38567;SDS011;24338;48.280;10.970;2023-05-23T13:42:50;12.18;;;9.98;;
38567;SDS011;24338;48.280;10.970;2023-05-23T13:45:17;10.93;;;9.10;;
38567;SDS011;24338;48.280;10.970;2023-05-23T13:47:45;11.68;;;9.25;;
38567;SDS011;24338;48.280;10.970;2023-05-23T13:50:12;13.52;;;10.73;;
38567;SDS011;24338;48.280;10.970;2023-05-23T13:52:40;14.65;;;11.43;;
38567;SDS011;24338;48.280;10.970;2023-05-23T13:55:11;13.13;;;10.95;;
38567;SDS011;24338;48.280;10.970;2023-05-23T13:57:38;12.23;;;11.00;;
38567;SDS011;24338;48.280;10.970;2023-05-23T14:00:05;13.80;;;9.68;;
38567;SDS011;24338;48.280;10.970;2023-05-23T14:02:34;12.07;;;9.93;;
38567;SDS011;24338;48.280;10.970;2023-05-23T14:05:01;13.30;;;9.85;;
38567;SDS011;24338;48.280;10.970;2023-05-23T14:07:28;11.60;;;9.27;;
38567;SDS011;24338;48.280;10.970;2023-05-23T14:09:56;11.05;;;9.82;;
38567;SDS011;24338;48.280;10.970;2023-05-23T14:12:23;10.93;;;9.23;;
38567;SDS011;24338;48.280;10.970;2023-05-23T14:14:51;11.52;;;9.45;;
38567;SDS011;24338;48.280;10.970;2023-05-23T14:17:18;12.02;;;8.80;;
38567;SDS011;24338;48.280;10.970;2023-05-23T14:19:45;11.73;;;9.65;;
38567;SDS011;24338;48.280;10.970;2023-05-23T14:22:12;12.68;;;8.90;;
38567;SDS011;24338;48.280;10.970;2023-05-23T14:24:39;13.80;;;9.15;;
38567;SDS011;24338;48.280;10.970;2023-05-23T14:27:06;13.50;;;9.63;;
38567;SDS011;24338;48.280;10.970;2023-05-23T14:29:36;10.90;;;8.93;;
38567;SDS011;24338;48.280;10.970;2023-05-23T14:32:03;12.57;;;9.55;;
38567;SDS011;24338;48.280;10.970;2023-05-23T14:34:30;10.35;;;8.88;;
38567;SDS011;24338;48.280;10.970;2023-05-23T14:36:57;13.10;;;8.90;;
38567;SDS011;24338;48.280;10.970;2023-05-23T14:39:24;10.77;;;9.30;;
38567;SDS011;24338;48.280;10.970;2023-05-23T14:41:51;11.48;;;8.20;;
38567;SDS011;24338;48.280;10.970;2023-05-23T14:44:17;10.55;;;8.18;;
38567;SDS011;24338;48.280;10.970;2023-05-23T14:46:44;11.93;;;8.70;;
38567;SDS011;24338;48.280;10.970;2023-05-23T14:49:16;10.40;;;8.50;;
38567;SDS011;24338;48.280;10.970;2023-05-23T14:51:43;13.23;;;9.18;;
38567;SDS011;24338;48.280;10.970;2023-05-23T14:54:16;13.10;;;9.10;;
38567;SDS011;24338;48.280;10.970;2023-05-23T14:56:43;12.38;;;8.75;;
38567;SDS011;24338;48.280;10.970;2023-05-23T14:59:10;11.70;;;8.32;;
38567;SDS011;24338;48.280;10.970;2023-05-23T15:01:37;9.32;;;8.20;;
38567;SDS011;24338;48.280;10.970;2023-05-23T15:04:06;9.68;;;8.48;;
38567;SDS011;24338;48.280;10.970;2023-05-23T15:06:35;10.27;;;8.00;;
38567;SDS011;24338;48.280;10.970;2023-05-23T15:09:03;10.65;;;7.82;;
38567;SDS011;24338;48.280;10.970;2023-05-23T15:11:30;9.30;;;8.40;;
38567;SDS011;24338;48.280;10.970;2023-05-23T15:13:57;11.43;;;8.40;;
38567;SDS011;24338;48.280;10.970;2023-05-23T15:16:25;8.57;;;7.68;;
38567;SDS011;24338;48.280;10.970;2023-05-23T15:18:52;8.07;;;6.50;;
38567;SDS011;24338;48.280;10.970;2023-05-23T15:21:19;9.57;;;7.82;;
38567;SDS011;24338;48.280;10.970;2023-05-23T15:23:46;8.75;;;7.35;;
38567;SDS011;24338;48.280;10.970;2023-05-23T15:26:13;10.27;;;6.20;;
38567;SDS011;24338;48.280;10.970;2023-05-23T15:28:39;8.70;;;6.25;;
38567;SDS011;24338;48.280;10.970;2023-05-23T15:31:06;7.63;;;6.10;;
38567;SDS011;24338;48.280;10.970;2023-05-23T15:33:33;7.00;;;5.80;;
38567;SDS011;24338;48.280;10.970;2023-05-23T15:36:00;7.38;;;6.10;;
38567;SDS011;24338;48.280;10.970;2023-05-23T15:38:27;8.85;;;5.55;;
38567;SDS011;24338;48.280;10.970;2023-05-23T15:40:54;7.07;;;5.35;;
38567;SDS011;24338;48.280;10.970;2023-05-23T15:43:21;6.72;;;5.28;;
38567;SDS011;24338;48.280;10.970;2023-05-23T15:45:50;5.85;;;4.18;;
38567;SDS011;24338;48.280;10.970;2023-05-23T15:48:17;7.35;;;4.32;;
38567;SDS011;24338;48.280;10.970;2023-05-23T15:50:44;7.85;;;4.63;;
38567;SDS011;24338;48.280;10.970;2023-05-23T15:53:11;5.47;;;4.10;;
38567;SDS011;24338;48.280;10.970;2023-05-23T15:55:39;6.47;;;4.10;;
38567;SDS011;24338;48.280;10.970;2023-05-23T15:58:08;6.18;;;3.65;;
38567;SDS011;24338;48.280;10.970;2023-05-23T16:00:35;6.47;;;4.22;;
38567;SDS011;24338;48.280;10.970;2023-05-23T16:03:03;5.07;;;3.55;;
38567;SDS011;24338;48.280;10.970;2023-05-23T16:05:30;8.05;;;4.35;;
38567;SDS011;24338;48.280;10.970;2023-05-23T16:07:57;8.50;;;3.50;;